Time;durP1;ratioP1;P1;durP2;ratioP2;P2;SDS_P1;SDS_P2;PMS_P1;PMS_P2;Temp;Humidity;BMP_temperature;BMP_pressure;BME280_temperature;BME280_humidity;BME280_pressure;Samples;Min_cycle;Max_cycle;Signal;HPM_P1;HPM_P2
2021/09/26 00:00:15;;;;;;;2.22;1.35;;;;;;;15.82;100.00;99355.09;5024759;28;20350;-48
2021/09/26 00:03:20;;;;;;;3.85;1.23;;;;;;;15.87;100.00;99348.66;5012800;28;20048;-49
2021/09/26 00:06:23;;;;;;;5.35;1.48;;;;;;;15.90;100.00;99346.84;5023593;28;20085;-49
2021/09/26 00:09:28;;;;;;;5.93;1.27;;;;;;;15.93;100.00;99345.81;5023898;28;20092;-49
2021/09/26 00:12:32;;;;;;;4.15;1.00;;;;;;;15.96;100.00;99350.34;5024042;28;20056;-48
2021/09/26 00:15:37;;;;;;;3.13;1.20;;;;;;;15.96;100.00;99353.16;5023453;28;20110;-48
2021/09/26 00:18:40;;;;;;;3.20;0.95;;;;;;;15.95;100.00;99346.03;5023515;28;20036;-48
2021/09/26 00:21:43;;;;;;;2.88;1.00;;;;;;;15.97;100.00;99343.47;5024497;28;20189;-48
2021/09/26 00:24:47;;;;;;;1.48;1.20;;;;;;;16.00;100.00;99339.63;5022795;28;20064;-49
2021/09/26 00:27:51;;;;;;;2.47;1.40;;;;;;;15.98;100.00;99339.38;5022191;28;20851;-48
2021/09/26 00:30:55;;;;;;;3.90;0.70;;;;;;;16.04;100.00;99340.09;5023909;28;20044;-48
2021/09/26 00:33:59;;;;;;;3.33;1.58;;;;;;;16.03;100.00;99337.78;5010365;28;20063;-48
2021/09/26 00:37:03;;;;;;;0.90;0.70;;;;;;;16.05;100.00;99330.34;5039409;28;20115;-49
2021/09/26 00:40:10;;;;;;;3.10;0.85;;;;;;;16.07;100.00;99329.84;5045219;28;20703;-48
2021/09/26 00:43:14;;;;;;;6.28;1.48;;;;;;;16.09;100.00;99327.28;5024544;28;20043;-48
2021/09/26 00:46:18;;;;;;;4.50;0.77;;;;;;;16.09;100.00;99339.25;5021811;28;20048;-48
2021/09/26 00:49:21;;;;;;;4.97;0.93;;;;;;;16.14;100.00;99335.63;5024233;28;20178;-48
2021/09/26 00:52:25;;;;;;;1.50;0.82;;;;;;;16.11;100.00;99335.94;5022936;28;20064;-48
2021/09/26 00:55:31;;;;;;;1.13;0.77;;;;;;;16.14;100.00;99324.38;5022783;28;20078;-48
2021/09/26 00:58:36;;;;;;;5.45;1.45;;;;;;;16.12;100.00;99326.19;5021146;28;20448;-49
2021/09/26 01:01:39;;;;;;;3.08;0.55;;;;;;;16.18;100.00;99318.47;5021351;28;20272;-48
2021/09/26 01:04:44;;;;;;;8.38;1.70;;;;;;;16.12;100.00;99321.34;5021445;28;20321;-48
2021/09/26 01:08:07;;;;;;;4.90;0.77;;;;;;;15.99;100.00;99318.41;5023092;28;20075;-49
2021/09/26 01:11:22;;;;;;;2.78;1.30;;;;;;;15.90;100.00;99327.19;5021275;28;20078;-48
2021/09/26 01:14:57;;;;;;;3.65;1.40;;;;;;;15.91;100.00;99317.47;5020883;28;20035;-48
2021/09/26 01:18:00;;;;;;;2.25;0.70;;;;;;;15.92;100.00;99313.38;5019966;28;20405;-48
2021/09/26 01:21:48;;;;;;;2.35;0.25;;;;;;;15.89;100.00;99314.44;5021618;28;20048;-49
2021/09/26 01:25:11;;;;;;;1.00;0.43;;;;;;;15.97;100.00;99311.81;5012800;28;20048;-49
2021/09/26 01:28:33;;;;;;;1.65;0.60;;;;;;;16.01;100.00;99304.59;5009910;28;20052;-48
2021/09/26 01:31:50;;;;;;;6.07;0.70;;;;;;;16.01;100.00;99309.47;5024250;28;20067;-49
2021/09/26 01:34:57;;;;;;;5.53;0.90;;;;;;;15.91;100.00;99307.03;5021460;28;20032;-48
2021/09/26 01:38:11;;;;;;;3.20;0.70;;;;;;;15.93;100.00;99306.47;5021281;28;20040;-48
2021/09/26 01:41:31;;;;;;;2.67;0.60;;;;;;;15.88;100.00;99301.66;5024613;28;20083;-48
2021/09/26 01:44:46;;;;;;;3.53;1.08;;;;;;;15.77;100.00;99301.78;5021555;28;20091;-48
2021/09/26 01:48:00;;;;;;;3.38;0.60;;;;;;;15.68;100.00;99294.44;5023883;28;20398;-48
2021/09/26 01:51:06;;;;;;;3.92;0.70;;;;;;;15.68;100.00;99293.72;5023841;28;20040;-49
2021/09/26 01:54:15;;;;;;;2.42;0.65;;;;;;;15.74;100.00;99291.59;5023275;28;20131;-48
2021/09/26 01:57:23;;;;;;;2.45;0.75;;;;;;;15.80;100.00;99289.50;5021588;28;21101;-48
2021/09/26 02:00:29;;;;;;;8.98;0.95;;;;;;;15.89;100.00;99289.16;5020693;28;20413;-48
2021/09/26 02:03:33;;;;;;;2.20;0.55;;;;;;;15.97;100.00;99292.91;5020757;28;20064;-49
2021/09/26 02:06:42;;;;;;;2.33;0.70;;;;;;;16.05;100.00;99288.22;5020232;28;20285;-48
2021/09/26 02:09:48;;;;;;;3.65;0.50;;;;;;;16.05;100.00;99288.22;5021636;28;20047;-48
2021/09/26 02:12:53;;;;;;;1.95;0.95;;;;;;;16.08;100.00;99287.19;5021618;28;20048;-48
2021/09/26 02:15:59;;;;;;;2.40;0.82;;;;;;;16.13;100.00;99289.19;5020799;28;20044;-49
2021/09/26 02:19:04;;;;;;;1.45;0.75;;;;;;;16.11;100.00;99283.31;5022290;28;20087;-49
2021/09/26 02:22:09;;;;;;;1.95;0.60;;;;;;;16.12;100.00;99290.44;5021175;28;20056;-49
2021/09/26 02:25:16;;;;;;;1.85;0.57;;;;;;;16.19;100.00;99289.09;5020900;28;20296;-48
2021/09/26 02:28:22;;;;;;;2.80;0.60;;;;;;;16.25;100.00;99296.19;5020993;28;20179;-49
2021/09/26 02:31:26;;;;;;;0.75;0.68;;;;;;;16.30;100.00;99292.56;5021941;28;20055;-48
2021/09/26 02:34:31;;;;;;;6.68;1.60;;;;;;;16.32;100.00;99287.16;5019523;28;20179;-49
2021/09/26 02:37:35;;;;;;;2.80;1.35;;;;;;;16.35;100.00;99288.91;5019484;28;20083;-49
2021/09/26 02:40:46;;;;;;;4.35;0.60;;;;;;;16.38;100.00;99284.28;5020051;28;20068;-48
2021/09/26 02:44:16;;;;;;;9.23;1.42;;;;;;;16.47;100.00;99284.69;5022734;28;20048;-49
2021/09/26 02:47:26;;;;;;;2.33;0.77;;;;;;;16.54;100.00;99284.13;5021619;28;20150;-49
2021/09/26 02:50:30;;;;;;;2.92;0.73;;;;;;;16.61;100.00;99277.88;5024621;28;20036;-49
2021/09/26 02:53:36;;;;;;;6.00;1.00;;;;;;;16.64;100.00;99278.88;5011713;28;20551;-48
2021/09/26 02:56:41;;;;;;;4.93;1.35;;;;;;;16.62;100.00;99278.63;5023586;28;20056;-49
2021/09/26 02:59:46;;;;;;;2.25;0.50;;;;;;;16.53;100.00;99276.19;5025735;28;20144;-48
2021/09/26 03:02:51;;;;;;;3.28;1.02;;;;;;;16.59;100.00;99269.22;5023766;28;20125;-48
2021/09/26 03:05:57;;;;;;;1.27;0.52;;;;;;;16.58;100.00;99273.31;5023361;28;20144;-49
2021/09/26 03:09:01;;;;;;;3.78;0.77;;;;;;;16.66;100.00;99268.59;5025547;28;20048;-49
2021/09/26 03:12:13;;;;;;;6.95;0.93;;;;;;;16.78;100.00;99257.22;5025271;28;20757;-49
2021/09/26 03:15:17;;;;;;;2.78;1.02;;;;;;;16.79;100.00;99253.09;5024769;28;20045;-49
2021/09/26 03:18:21;;;;;;;3.88;0.57;;;;;;;16.82;100.00;99257.66;5023984;28;20035;-48
2021/09/26 03:21:27;;;;;;;2.25;0.55;;;;;;;16.83;100.00;99247.94;5023483;28;20040;-49
2021/09/26 03:24:32;;;;;;;7.20;1.05;;;;;;;16.84;100.00;99249.44;5022536;28;20052;-49
2021/09/26 03:27:35;;;;;;;3.13;0.45;;;;;;;16.87;100.00;99248.41;5024515;28;20032;-49
2021/09/26 03:30:39;;;;;;;1.65;0.50;;;;;;;16.83;100.00;99242.31;5025386;28;20130;-49
2021/09/26 03:33:43;;;;;;;3.70;0.98;;;;;;;16.90;100.00;99236.06;5025458;28;20036;-48
2021/09/26 03:36:49;;;;;;;2.08;0.68;;;;;;;16.90;100.00;99231.19;5013094;28;20056;-49
2021/09/26 03:39:53;;;;;;;1.42;0.57;;;;;;;16.92;100.00;99233.47;5024357;28;20167;-49
2021/09/26 03:42:57;;;;;;;1.52;0.30;;;;;;;16.95;100.00;99224.75;5025010;28;20366;-49
2021/09/26 03:46:02;;;;;;;6.13;1.13;;;;;;;16.94;100.00;99222.44;5023621;28;20302;-48
2021/09/26 03:49:06;;;;;;;3.08;0.70;;;;;;;16.92;100.00;99216.59;5025238;28;20036;-49
2021/09/26 03:52:10;;;;;;;0.82;0.38;;;;;;;16.82;100.00;99216.25;5023552;28;20134;-48
2021/09/26 03:55:15;;;;;;;2.20;0.80;;;;;;;16.76;100.00;99226.06;5024412;28;20534;-48
2021/09/26 03:58:18;;;;;;;5.00;0.98;;;;;;;16.66;100.00;99211.59;5023043;28;20039;-49
2021/09/26 04:01:24;;;;;;;2.35;0.77;;;;;;;16.59;100.00;99212.97;5022116;28;20044;-48
2021/09/26 04:04:28;;;;;;;1.92;0.68;;;;;;;16.61;100.00;99209.66;5021699;28;20380;-48
2021/09/26 04:07:32;;;;;;;1.15;0.55;;;;;;;16.61;100.00;99210.41;5022854;28;20136;-49
2021/09/26 04:10:36;;;;;;;3.28;0.55;;;;;;;16.60;100.00;99210.94;5022675;28;20508;-48
2021/09/26 04:13:40;;;;;;;3.30;0.80;;;;;;;16.59;100.00;99212.22;5023477;28;20059;-49
2021/09/26 04:16:45;;;;;;;8.43;0.88;;;;;;;16.53;100.00;99209.50;5010029;28;20076;-49
2021/09/26 04:19:49;;;;;;;1.02;0.60;;;;;;;16.48;100.00;99213.09;5022408;28;20425;-49
2021/09/26 04:22:53;;;;;;;4.40;1.33;;;;;;;16.39;100.00;99210.69;5022354;28;20032;-49
2021/09/26 04:25:56;;;;;;;4.90;0.95;;;;;;;16.39;100.00;99210.69;5023519;28;20051;-48
2021/09/26 04:28:58;;;;;;;1.60;0.65;;;;;;;16.36;100.00;99217.38;5023223;28;21025;-48
2021/09/26 04:32:05;;;;;;;6.95;0.60;;;;;;;16.32;100.00;99211.28;5023361;28;20105;-48
2021/09/26 04:35:08;;;;;;;2.90;0.73;;;;;;;16.35;100.00;99209.47;5022725;28;20093;-48
2021/09/26 04:38:12;;;;;;;4.00;0.70;;;;;;;16.43;100.00;99213.19;5024002;28;20129;-49
2021/09/26 04:41:15;;;;;;;2.90;1.05;;;;;;;16.47;100.00;99216.44;5023561;28;20047;-49
2021/09/26 04:44:18;;;;;;;1.42;0.30;;;;;;;16.43;100.00;99213.97;5023439;28;20051;-48
2021/09/26 04:47:24;;;;;;;1.35;0.52;;;;;;;16.45;100.00;99202.94;5021709;28;20304;-49
2021/09/26 04:50:30;;;;;;;10.93;1.80;;;;;;;16.50;100.00;99204.94;5023229;28;20421;-48
2021/09/26 04:53:35;;;;;;;2.83;0.90;;;;;;;16.56;100.00;99214.06;5022210;28;20175;-49
2021/09/26 04:56:38;;;;;;;3.80;1.00;;;;;;;16.63;100.00;99201.44;5021427;28;20134;-49
2021/09/26 04:59:42;;;;;;;3.78;1.05;;;;;;;16.64;100.00;99203.72;5010705;28;20564;-48
2021/09/26 05:02:46;;;;;;;7.45;1.30;;;;;;;16.67;100.00;99208.25;5023175;28;20032;-49
2021/09/26 05:05:51;;;;;;;6.15;0.90;;;;;;;16.77;100.00;99200.22;5024045;28;20095;-49
2021/09/26 05:09:02;;;;;;;9.90;1.75;;;;;;;16.84;100.00;99207.25;5024298;28;20137;-49
2021/09/26 05:12:06;;;;;;;6.00;1.10;;;;;;;16.89;100.00;99217.69;5012005;28;20252;-48
2021/09/26 05:15:11;;;;;;;6.70;1.50;;;;;;;16.92;100.00;99210.97;5021304;28;20826;-49
2021/09/26 05:18:14;;;;;;;4.80;1.67;;;;;;;16.94;100.00;99216.81;5010226;28;20154;-49
2021/09/26 05:21:17;;;;;;;2.58;1.05;;;;;;;16.97;100.00;99207.31;5021526;28;20052;-49
2021/09/26 05:24:21;;;;;;;5.93;1.65;;;;;;;16.99;100.00;99204.72;5021618;28;20413;-49
2021/09/26 05:27:25;;;;;;;7.07;1.13;;;;;;;16.97;100.00;99213.72;5010872;28;20106;-49
2021/09/26 05:30:31;;;;;;;9.82;1.95;;;;;;;16.98;100.00;99215.22;5023892;28;20460;-49
2021/09/26 05:33:34;;;;;;;9.40;2.15;;;;;;;16.99;100.00;99208.31;5022407;28;20036;-49
2021/09/26 05:36:39;;;;;;;5.47;1.60;;;;;;;17.04;100.00;99209.53;5022175;28;20115;-49
2021/09/26 05:39:43;;;;;;;6.93;1.92;;;;;;;17.05;100.00;99214.59;5022227;28;20047;-49
2021/09/26 05:42:46;;;;;;;6.32;1.15;;;;;;;17.01;100.00;99213.38;5024945;28;20044;-49
2021/09/26 05:45:49;;;;;;;4.43;1.45;;;;;;;16.94;100.00;99214.00;5022562;28;20060;-49
2021/09/26 05:48:53;;;;;;;5.32;1.70;;;;;;;16.87;100.00;99206.94;5026127;28;20547;-49
2021/09/26 05:51:57;;;;;;;10.50;2.60;;;;;;;16.82;100.00;99212.66;5021715;28;20052;-49
2021/09/26 05:55:02;;;;;;;3.58;1.00;;;;;;;16.73;100.00;99211.00;5021549;28;20044;-49
2021/09/26 05:58:07;;;;;;;7.40;1.30;;;;;;;16.61;100.00;99201.97;5023878;28;20067;-49
2021/09/26 06:01:11;;;;;;;2.90;0.85;;;;;;;16.49;100.00;99200.59;5021152;28;20079;-49
2021/09/26 06:04:15;;;;;;;4.40;1.08;;;;;;;16.40;100.00;99203.00;5021397;28;20352;-49
2021/09/26 06:11:45;;;;;;;2.78;1.40;;;;;;;16.34;100.00;99203.09;5044942;28;20114;-47
2021/09/26 06:14:48;;;;;;;3.08;0.70;;;;;;;16.37;100.00;99218.88;5022973;28;20060;-47
2021/09/26 06:18:04;;;;;;;4.20;1.13;;;;;;;16.35;100.00;99210.22;5023250;28;20453;-48
2021/09/26 06:21:13;;;;;;;3.35;0.65;;;;;;;16.34;100.00;99214.31;5001863;28;20430;-49
2021/09/26 06:24:16;;;;;;;5.93;1.17;;;;;;;16.21;100.00;99205.81;5026689;28;20167;-49
2021/09/26 06:27:20;;;;;;;11.27;1.65;;;;;;;16.14;100.00;99206.41;5027091;28;20839;-50
2021/09/26 06:30:23;;;;;;;3.80;1.63;;;;;;;16.02;100.00;99218.31;5025713;28;20035;-49
2021/09/26 06:33:26;;;;;;;10.68;1.40;;;;;;;15.90;100.00;99218.44;5025601;28;20044;-49
2021/09/26 06:36:30;;;;;;;7.80;2.13;;;;;;;15.82;100.00;99225.16;5026028;28;20867;-49
2021/09/26 06:39:34;;;;;;;13.57;1.98;;;;;;;15.80;100.00;99222.13;5026532;28;20036;-49
2021/09/26 06:42:37;;;;;;;4.75;1.05;;;;;;;15.76;100.00;99221.66;5024995;28;20035;-49
2021/09/26 06:45:40;;;;;;;13.68;2.75;;;;;;;15.75;100.00;99220.13;5024530;28;20063;-49
2021/09/26 06:48:44;;;;;;;9.02;2.25;;;;;;;15.68;100.00;99226.34;5025350;28;20040;-49
2021/09/26 06:51:47;;;;;;;3.85;1.80;;;;;;;15.66;100.00;99240.13;5023593;28;20559;-49
2021/09/26 06:54:51;;;;;;;3.42;1.65;;;;;;;15.72;100.00;99246.47;5009147;28;20179;-49
2021/09/26 06:57:54;;;;;;;7.75;2.35;;;;;;;15.71;100.00;99251.31;5023041;28;20068;-49
2021/09/26 07:00:57;;;;;;;7.80;2.08;;;;;;;15.75;100.00;99265.81;5024729;28;20103;-49
2021/09/26 07:04:03;;;;;;;4.97;1.40;;;;;;;15.76;100.00;99261.72;5015431;28;20055;-48
2021/09/26 07:07:06;;;;;;;10.23;2.22;;;;;;;15.81;100.00;99274.94;5014397;28;20044;-48
2021/09/26 07:10:10;;;;;;;6.35;1.98;;;;;;;15.87;100.00;99267.22;5014471;28;20836;-47
2021/09/26 07:13:13;;;;;;;4.68;1.58;;;;;;;15.80;100.00;99278.28;5014377;28;20127;-47
2021/09/26 07:16:17;;;;;;;7.72;2.28;;;;;;;15.76;100.00;99280.63;5014241;28;20032;-48
2021/09/26 07:19:20;;;;;;;9.88;1.88;;;;;;;15.76;100.00;99278.56;5017457;28;20037;-48
2021/09/26 07:22:24;;;;;;;6.72;1.73;;;;;;;15.79;100.00;99276.75;5019714;28;20036;-48
2021/09/26 07:25:28;;;;;;;13.02;2.58;;;;;;;15.83;100.00;99286.41;5015730;28;20138;-48
2021/09/26 07:28:31;;;;;;;8.80;2.85;;;;;;;15.86;100.00;99281.78;5014945;28;20040;-48
2021/09/26 07:31:34;;;;;;;4.55;1.60;;;;;;;15.82;100.00;99281.31;5018143;28;20087;-47
2021/09/26 07:34:37;;;;;;;5.57;1.63;;;;;;;15.82;100.00;99281.31;5018889;28;20111;-48
2021/09/26 07:37:40;;;;;;;11.13;2.72;;;;;;;15.91;100.00;99278.16;5025220;28;20754;-48
2021/09/26 07:40:44;;;;;;;7.68;2.33;;;;;;;15.99;100.00;99279.09;5023097;28;20336;-48
2021/09/26 07:43:47;;;;;;;5.93;1.98;;;;;;;16.04;100.00;99269.84;5020202;28;20067;-48
2021/09/26 07:46:50;;;;;;;10.93;2.53;;;;;;;16.07;100.00;99279.28;5020079;28;20044;-48
2021/09/26 07:49:55;;;;;;;6.43;1.77;;;;;;;16.06;100.00;99272.91;5020762;28;20393;-48
2021/09/26 07:52:59;;;;;;;6.10;1.25;;;;;;;15.99;100.00;99270.66;5022433;28;20064;-48
2021/09/26 07:56:03;;;;;;;10.30;2.50;;;;;;;15.90;100.00;99282.25;5021171;28;20559;-48
2021/09/26 08:01:31;;;;;;;6.63;2.23;;;;;;;16.02;100.00;99278.06;5049437;22;20049;-48
2021/09/26 08:04:34;;;;;;;10.75;2.55;;;;;;;16.11;100.00;99274.91;5033782;28;20053;-48
2021/09/26 08:07:41;;;;;;;5.35;2.55;;;;;;;16.23;100.00;99276.28;5045288;28;20444;-47
2021/09/26 08:10:57;;;;;;;6.83;2.53;;;;;;;16.27;100.00;99271.13;5044157;28;20506;-47
2021/09/26 08:14:00;;;;;;;8.27;3.13;;;;;;;16.36;100.00;99272.81;5054769;28;20082;-47
2021/09/26 08:17:04;;;;;;;7.40;2.03;;;;;;;16.39;100.00;99266.13;5054185;28;20052;-48
2021/09/26 08:20:07;;;;;;;2.83;1.83;;;;;;;16.44;100.00;99274.47;4998814;28;20118;-48
2021/09/26 08:23:12;;;;;;;5.03;0.98;;;;;;;16.44;100.00;99277.28;4999438;28;20059;-48
2021/09/26 08:26:14;;;;;;;9.63;2.38;;;;;;;16.50;100.00;99275.19;4999528;28;20127;-48
2021/09/26 08:29:18;;;;;;;7.75;1.88;;;;;;;16.58;100.00;99273.31;4999211;28;20037;-48
2021/09/26 08:32:21;;;;;;;8.55;2.20;;;;;;;16.67;100.00;99275.75;4999351;28;20375;-48
2021/09/26 08:35:24;;;;;;;8.65;1.65;;;;;;;16.78;100.00;99262.84;4999756;28;20154;-48
2021/09/26 08:38:27;;;;;;;5.88;1.67;;;;;;;16.92;100.00;99272.84;4999544;28;20344;-48
2021/09/26 08:41:32;;;;;;;13.88;2.53;;;;;;;16.89;100.00;99269.03;4998834;28;20080;-48
2021/09/26 08:44:35;;;;;;;5.22;1.50;;;;;;;17.00;100.00;99273.78;4998392;28;20884;-48
2021/09/26 08:47:39;;;;;;;14.93;2.40;;;;;;;17.04;100.00;99268.59;4998530;28;20041;-48
2021/09/26 08:50:43;;;;;;;5.15;1.83;;;;;;;17.08;100.00;99269.03;5001145;28;20610;-48
2021/09/26 08:53:47;;;;;;;8.60;2.47;;;;;;;17.14;100.00;99278.16;4998393;28;20103;-48
2021/09/26 08:56:52;;;;;;;6.93;2.70;;;;;;;17.18;100.00;99281.41;5005051;28;20107;-48
2021/09/26 08:59:55;;;;;;;7.47;1.65;;;;;;;17.14;100.00;99281.72;5003041;28;20049;-48
2021/09/26 09:03:00;;;;;;;5.70;1.77;;;;;;;17.12;100.00;99280.75;5011787;28;20145;-48
2021/09/26 09:06:03;;;;;;;9.13;2.40;;;;;;;17.19;100.00;99292.16;4997939;28;20148;-47
2021/09/26 09:09:15;;;;;;;9.57;2.63;;;;;;;17.26;100.00;99291.50;5013323;28;20040;-48
2021/09/26 09:12:33;;;;;;;4.22;1.95;;;;;;;17.28;100.00;99288.19;5011894;28;20098;-48
2021/09/26 09:15:50;;;;;;;4.35;2.10;;;;;;;17.36;100.00;99289.06;5017594;28;20067;-48
2021/09/26 09:18:56;;;;;;;9.32;2.17;;;;;;;17.48;100.00;99281.94;5017896;28;20484;-48
2021/09/26 09:22:07;;;;;;;5.55;2.50;;;;;;;17.56;100.00;99273.69;5017911;28;20707;-48
2021/09/26 09:25:30;;;;;;;4.47;1.25;;;;;;;17.65;100.00;99278.91;5017391;28;20075;-48
2021/09/26 09:28:39;;;;;;;5.45;1.90;;;;;;;17.75;100.00;99275.13;5018508;28;20028;-48
2021/09/26 09:31:50;;;;;;;5.30;1.20;;;;;;;17.79;100.00;99281.19;5018334;28;20044;-48
2021/09/26 09:34:56;;;;;;;6.13;2.88;;;;;;;17.66;100.00;99278.34;5019651;28;20048;-48
2021/09/26 09:37:59;;;;;;;2.95;1.38;;;;;;;17.56;100.00;99274.44;5021654;28;20758;-48
2021/09/26 09:41:04;;;;;;;5.97;2.03;;;;;;;17.40;100.00;99267.00;5021687;28;20039;-48
2021/09/26 09:44:10;;;;;;;4.10;1.50;;;;;;;17.51;100.00;99268.88;5020291;28;20248;-48
2021/09/26 09:47:14;;;;;;;7.18;1.92;;;;;;;17.79;100.00;99263.53;5019614;28;20043;-48
2021/09/26 09:50:17;;;;;;;9.23;1.02;;;;;;;17.97;100.00;99271.16;5019698;28;20102;-48
2021/09/26 09:53:27;;;;;;;2.80;1.17;;;;;;;17.80;100.00;99259.44;5018554;28;20077;-48
2021/09/26 09:56:41;;;;;;;6.47;1.35;;;;;;;17.76;100.00;99265.38;5007178;28;20476;-48
2021/09/26 09:59:47;;;;;;;3.60;1.20;;;;;;;17.76;100.00;99262.56;4999284;28;20374;-48
2021/09/26 10:02:50;;;;;;;4.25;1.02;;;;;;;17.83;100.00;99259.09;4997354;28;20056;-48
2021/09/26 10:05:54;;;;;;;7.57;2.20;;;;;;;17.97;100.00;99268.34;5000355;28;20389;-48
2021/09/26 10:09:17;;;;;;;5.97;2.35;;;;;;;18.11;100.00;99264.97;5002927;28;20299;-48
2021/09/26 10:12:28;;;;;;;5.53;1.98;;;;;;;18.25;100.00;99265.75;4999339;28;20055;-48
2021/09/26 10:15:32;;;;;;;3.10;1.15;;;;;;;18.40;100.00;99265.94;4999767;28;20037;-48
2021/09/26 10:18:37;;;;;;;3.30;1.63;;;;;;;18.47;100.00;99264.56;5000238;28;20072;-48
2021/09/26 10:21:42;;;;;;;4.95;1.25;;;;;;;18.73;100.00;99258.88;5000005;28;20118;-49
2021/09/26 10:24:50;;;;;;;6.60;1.20;;;;;;;18.88;100.00;99250.56;4998892;28;20099;-49
2021/09/26 10:27:54;;;;;;;5.88;1.55;;;;;;;18.89;100.00;99252.06;4998893;28;20044;-48
2021/09/26 10:31:03;;;;;;;3.90;1.23;;;;;;;18.83;100.00;99245.81;4997821;28;20389;-48
2021/09/26 10:34:08;;;;;;;3.85;0.95;;;;;;;18.88;100.00;99253.41;4998800;28;20422;-50
2021/09/26 10:37:14;;;;;;;2.13;0.68;;;;;;;18.88;100.00;99254.13;4999759;28;20056;-49
2021/09/26 10:40:19;;;;;;;3.92;1.10;;;;;;;19.03;100.00;99253.56;5001043;28;20615;-48
2021/09/26 10:43:30;;;;;;;2.50;0.40;;;;;;;19.00;100.00;99249.00;4999128;28;20051;-48
2021/09/26 10:46:33;;;;;;;5.25;1.20;;;;;;;19.00;100.00;99249.00;4997300;28;20095;-48
2021/09/26 10:49:39;;;;;;;3.35;1.10;;;;;;;19.04;100.00;99238.13;4998611;28;20662;-48
2021/09/26 10:52:53;;;;;;;3.40;0.95;;;;;;;18.99;100.00;99241.88;5000315;28;20137;-48
2021/09/26 10:56:24;;;;;;;3.20;0.80;;;;;;;18.99;100.00;99241.88;5003629;28;20059;-49
2021/09/26 10:59:45;;;;;;;1.93;0.83;;;;;;;19.16;100.00;99238.63;5017861;28;20357;-49
2021/09/26 11:02:52;;;;;;;2.67;0.57;;;;;;;19.18;100.00;99242.44;5016655;28;20132;-48
2021/09/26 11:06:22;;;;;;;1.83;0.68;;;;;;;19.13;100.00;99236.91;5024442;28;20083;-48
2021/09/26 11:09:55;;;;;;;1.50;0.60;;;;;;;19.22;100.00;99228.72;5021317;28;20063;-51
2021/09/26 11:13:07;;;;;;;3.20;1.17;;;;;;;19.34;100.00;99232.81;5024355;28;20753;-50
2021/09/26 11:16:18;;;;;;;2.42;0.57;;;;;;;19.48;100.00;99230.69;5024121;28;20094;-50
2021/09/26 11:19:23;;;;;;;0.95;0.50;;;;;;;19.55;100.00;99227.94;5024025;28;20767;-50
2021/09/26 11:22:26;;;;;;;1.88;0.40;;;;;;;19.63;100.00;99220.25;5023075;28;20119;-50
2021/09/26 11:25:57;;;;;;;2.70;0.40;;;;;;;19.70;100.00;99223.69;5023397;28;20209;-50
2021/09/26 11:29:00;;;;;;;1.02;0.32;;;;;;;19.75;100.00;99219.97;5023941;28;20078;-50
2021/09/26 11:32:23;;;;;;;3.20;0.70;;;;;;;19.89;100.00;99224.19;5022674;28;20059;-50
2021/09/26 11:35:28;;;;;;;3.17;1.50;;;;;;;20.03;100.00;99219.97;5024593;28;20036;-50
2021/09/26 11:38:36;;;;;;;1.67;0.85;;;;;;;20.04;100.00;99225.06;5024032;28;20051;-50
2021/09/26 11:41:40;;;;;;;1.80;0.32;;;;;;;20.09;100.00;99226.97;5023469;28;20942;-51
2021/09/26 11:44:50;;;;;;;1.45;0.75;;;;;;;20.28;100.00;99221.06;5022582;28;20043;-50
2021/09/26 11:48:08;;;;;;;1.17;0.82;;;;;;;20.45;100.00;99218.50;5022885;28;20064;-50
2021/09/26 11:51:13;;;;;;;2.30;0.40;;;;;;;20.37;100.00;99218.50;5022463;28;20040;-50
2021/09/26 11:54:16;;;;;;;2.45;0.70;;;;;;;20.47;100.00;99218.69;5025048;28;20044;-51
2021/09/26 11:57:25;;;;;;;2.30;0.45;;;;;;;20.53;100.00;99213.63;5005402;28;20040;-50
2021/09/26 12:00:39;;;;;;;1.45;0.40;;;;;;;20.65;100.00;99208.41;5010644;28;20709;-51
2021/09/26 12:03:42;;;;;;;1.75;0.63;;;;;;;20.56;100.00;99209.69;5015900;28;20051;-51
2021/09/26 12:06:51;;;;;;;0.50;0.32;;;;;;;20.72;100.00;99216.16;5026148;28;20103;-50
2021/09/26 12:09:54;;;;;;;1.60;0.65;;;;;;;20.70;100.00;99215.97;5023677;28;21120;-51
2021/09/26 12:12:57;;;;;;;1.08;0.50;;;;;;;20.63;100.00;99225.19;5024994;28;20161;-50
2021/09/26 12:16:10;;;;;;;1.70;0.38;;;;;;;20.58;100.00;99209.88;5033714;28;20078;-50
2021/09/26 12:19:19;;;;;;;0.68;0.10;;;;;;;20.58;100.00;99214.78;5029263;28;20830;-50
2021/09/26 12:22:26;;;;;;;2.17;0.60;;;;;;;20.68;100.00;99215.78;5041608;28;20367;-50
2021/09/26 12:25:36;;;;;;;0.38;0.30;;;;;;;20.66;100.00;99216.31;5038348;28;20130;-49
2021/09/26 12:28:41;;;;;;;1.48;0.30;;;;;;;20.67;100.00;99215.00;5044231;28;20052;-48
2021/09/26 12:31:47;;;;;;;3.10;0.40;;;;;;;20.72;100.00;99214.09;5044500;28;20093;-49
2021/09/26 12:34:51;;;;;;;2.00;0.70;;;;;;;20.84;100.00;99215.25;5044874;28;20040;-49
2021/09/26 12:37:57;;;;;;;6.82;0.40;;;;;;;20.98;100.00;99208.13;5036795;28;20478;-50
2021/09/26 12:41:06;;;;;;;2.53;0.30;;;;;;;21.28;100.00;99209.50;5045870;28;20040;-51
2021/09/26 12:44:11;;;;;;;4.07;0.75;;;;;;;21.48;100.00;99208.56;5037099;28;20403;-50
2021/09/26 12:47:22;;;;;;;0.75;0.30;;;;;;;21.59;100.00;99202.53;5040519;28;20051;-50
2021/09/26 12:50:27;;;;;;;1.77;0.22;;;;;;;21.76;100.00;99214.03;5043304;28;20182;-50
2021/09/26 12:53:34;;;;;;;1.35;0.22;;;;;;;21.83;100.00;99208.38;5042087;28;20808;-50
2021/09/26 12:56:42;;;;;;;0.93;0.55;;;;;;;21.98;100.00;99204.78;5045543;28;20598;-49
2021/09/26 12:59:49;;;;;;;8.63;0.55;;;;;;;22.04;100.00;99201.72;5048096;28;20492;-51
2021/09/26 13:02:55;;;;;;;1.85;0.38;;;;;;;21.95;100.00;99210.81;5052857;28;20166;-51
2021/09/26 13:06:08;;;;;;;0.60;0.13;;;;;;;21.88;100.00;99196.09;5029300;28;20052;-50
2021/09/26 13:09:22;;;;;;;0.60;0.13;;;;;;;21.86;100.00;99212.16;5016831;28;20047;-50
2021/09/26 13:12:44;;;;;;;1.95;0.30;;;;;;;21.78;100.00;99203.66;5037212;28;20030;-52
2021/09/26 13:15:49;;;;;;;0.98;0.40;;;;;;;21.72;100.00;99205.16;5025423;28;20044;-53
2021/09/26 13:18:57;;;;;;;1.13;0.15;;;;;;;21.84;100.00;99209.13;5014524;28;20083;-51
2021/09/26 13:22:14;;;;;;;0.10;0.08;;;;;;;21.77;100.00;99209.88;5003230;28;20044;-52
2021/09/26 13:25:26;;;;;;;1.02;0.13;;;;;;;21.66;100.00;99213.09;5013589;28;20072;-51
2021/09/26 13:28:32;;;;;;;1.90;0.55;;;;;;;21.53;100.00;99210.44;5012305;28;20039;-52
2021/09/26 13:31:48;;;;;;;0.60;0.20;;;;;;;21.57;100.00;99210.84;5024700;28;20032;-51
2021/09/26 13:35:17;;;;;;;1.13;0.15;;;;;;;21.56;100.00;99212.16;5025358;28;20116;-52
2021/09/26 13:38:23;;;;;;;0.22;0.13;;;;;;;21.51;100.00;99207.44;5023651;28;20455;-51
2021/09/26 13:41:26;;;;;;;0.50;0.10;;;;;;;21.51;100.00;99204.59;5027037;28;20138;-52
2021/09/26 13:44:29;;;;;;;0.47;0.28;;;;;;;21.56;100.00;99212.16;5041714;28;20043;-51
2021/09/26 13:47:34;;;;;;;0.80;0.47;;;;;;;21.65;100.00;99211.59;5040962;28;20071;-52
2021/09/26 13:50:38;;;;;;;0.80;0.35;;;;;;;21.59;100.00;99211.78;5043511;28;20055;-52
2021/09/26 13:53:42;;;;;;;1.08;0.25;;;;;;;21.45;100.00;99209.69;5031398;28;20100;-52
2021/09/26 13:56:46;;;;;;;0.47;0.28;;;;;;;21.34;100.00;99199.50;5029445;28;20266;-52
2021/09/26 13:59:51;;;;;;;1.48;0.20;;;;;;;21.33;100.00;99209.31;5041440;28;20583;-52
2021/09/26 14:02:58;;;;;;;3.50;0.20;;;;;;;21.37;100.00;99203.28;5016908;28;20066;-52
2021/09/26 14:06:03;;;;;;;0.68;0.57;;;;;;;21.40;100.00;99202.13;5041405;28;20043;-52
2021/09/26 14:09:07;;;;;;;1.30;0.30;;;;;;;21.44;100.00;99203.28;5030829;28;20035;-51
2021/09/26 14:12:15;;;;;;;1.50;0.98;;;;;;;21.53;100.00;99199.13;5032378;28;20039;-52
2021/09/26 14:15:20;;;;;;;3.95;0.35;;;;;;;21.48;100.00;99206.50;5031087;28;20043;-51
2021/09/26 14:18:23;;;;;;;1.35;0.35;;;;;;;21.48;100.00;99198.00;5042089;28;20105;-52
2021/09/26 14:21:28;;;;;;;2.55;0.68;;;;;;;20.91;100.00;99194.72;5040529;28;20060;-50
2021/09/26 14:24:32;;;;;;;1.13;0.30;;;;;;;21.44;100.00;99205.38;5042198;28;20079;-50
2021/09/26 14:27:41;;;;;;;1.85;0.22;;;;;;;21.34;100.00;99201.56;5029296;28;20519;-50
2021/09/26 14:30:46;;;;;;;5.53;1.33;;;;;;;21.28;100.00;99201.00;5042447;28;20028;-50
2021/09/26 14:33:52;;;;;;;1.42;0.50;;;;;;;21.14;100.00;99198.34;5028811;28;20726;-50